Time;durP1;ratioP1;P1;durP2;ratioP2;P2;SDS_P1;SDS_P2;PMS_P1;PMS_P2;Temp;Humidity;BMP_temperature;BMP_pressure;BME280_temperature;BME280_humidity;BME280_pressure;Samples;Min_cycle;Max_cycle;Signal;HPM_P1;HPM_P2
2021/10/20 00:00:47;;;;;;;4.18;2.50;;;17.30;99.90;;;;;;2063904;28;20030;-69
2021/10/20 00:01:48;;;;;;;3.17;2.50;;;17.30;99.90;;;;;;2066981;28;20026;-69
2021/10/20 00:02:49;;;;;;;3.20;2.55;;;17.30;99.90;;;;;;2063742;28;20034;-69
2021/10/20 00:03:50;;;;;;;5.07;2.72;;;17.30;99.90;;;;;;2063921;28;20549;-69
2021/10/20 00:04:50;;;;;;;2.65;2.45;;;17.30;99.90;;;;;;2067598;28;20428;-69
2021/10/20 00:05:51;;;;;;;2.47;2.28;;;17.30;99.90;;;;;;2063920;28;20031;-69
2021/10/20 00:06:51;;;;;;;2.83;2.40;;;17.30;99.90;;;;;;2069143;28;20394;-69
2021/10/20 00:07:52;;;;;;;2.63;2.15;;;17.30;99.90;;;;;;2070712;28;20061;-69
2021/10/20 00:08:53;;;;;;;6.53;2.60;;;17.30;99.90;;;;;;2062658;28;20019;-69
2021/10/20 00:09:53;;;;;;;2.63;2.38;;;17.30;99.90;;;;;;2064021;28;20031;-69
2021/10/20 00:10:54;;;;;;;3.67;2.10;;;17.30;99.90;;;;;;2063666;28;20031;-69
2021/10/20 00:11:55;;;;;;;2.90;2.45;;;17.30;99.90;;;;;;2063851;28;20053;-69
2021/10/20 00:12:55;;;;;;;2.70;2.10;;;17.30;99.90;;;;;;2063993;28;20105;-69
2021/10/20 00:13:56;;;;;;;2.90;2.65;;;17.30;99.90;;;;;;2063749;28;20158;-69
2021/10/20 00:14:57;;;;;;;2.63;2.42;;;17.30;99.90;;;;;;2063895;28;20030;-69
2021/10/20 00:15:58;;;;;;;3.33;2.55;;;17.30;99.90;;;;;;2063718;28;20626;-69
2021/10/20 00:16:59;;;;;;;3.90;2.83;;;17.30;99.90;;;;;;2063951;28;20111;-69
2021/10/20 00:18:00;;;;;;;2.35;2.17;;;17.30;99.90;;;;;;2067041;28;20045;-69
2021/10/20 00:19:01;;;;;;;2.40;2.20;;;17.40;99.90;;;;;;2070490;28;20092;-69
2021/10/20 00:20:08;;;;;;;4.35;2.35;;;17.40;99.90;;;;;;2070503;28;20052;-69
2021/10/20 00:21:09;;;;;;;4.75;2.70;;;17.30;99.90;;;;;;2070445;28;20078;-69
2021/10/20 00:22:09;;;;;;;2.88;2.20;;;17.40;99.90;;;;;;2063775;28;20041;-69
2021/10/20 00:23:12;;;;;;;4.15;2.67;;;17.30;99.90;;;;;;2065916;28;20397;-69
2021/10/20 00:24:12;;;;;;;3.15;2.22;;;17.30;99.90;;;;;;2063693;28;20110;-69
2021/10/20 00:25:14;;;;;;;3.47;2.72;;;17.30;99.90;;;;;;2063971;28;20026;-69
2021/10/20 00:26:14;;;;;;;3.38;2.35;;;17.30;99.90;;;;;;2063382;28;20478;-69
2021/10/20 00:27:15;;;;;;;5.22;2.50;;;17.30;99.90;;;;;;2070770;28;20344;-69
2021/10/20 00:28:16;;;;;;;3.83;2.80;;;17.30;99.90;;;;;;2070551;28;20382;-69
2021/10/20 00:29:16;;;;;;;2.75;2.47;;;17.30;99.90;;;;;;2069361;28;20050;-69
2021/10/20 00:30:17;;;;;;;3.97;2.95;;;17.30;99.90;;;;;;2063601;28;20578;-69
2021/10/20 00:31:18;;;;;;;3.95;2.58;;;17.30;99.90;;;;;;2063555;28;20022;-69
2021/10/20 00:32:18;;;;;;;2.70;2.50;;;17.30;99.90;;;;;;2063496;28;20029;-69
2021/10/20 00:33:19;;;;;;;4.82;2.75;;;17.30;99.90;;;;;;2064461;28;20109;-69
2021/10/20 00:34:19;;;;;;;2.30;2.05;;;17.30;99.90;;;;;;2065297;28;20023;-69
2021/10/20 00:35:21;;;;;;;3.10;2.80;;;17.30;99.90;;;;;;2065991;28;20033;-69
2021/10/20 00:36:21;;;;;;;4.22;2.47;;;17.30;99.90;;;;;;2064590;28;20034;-69
2021/10/20 00:37:22;;;;;;;2.42;2.22;;;17.30;99.90;;;;;;2064950;28;20018;-69
2021/10/20 00:38:23;;;;;;;3.85;2.42;;;17.30;99.90;;;;;;2068769;28;20097;-69
2021/10/20 00:39:23;;;;;;;3.97;2.40;;;17.30;99.90;;;;;;2070652;28;20025;-69
2021/10/20 00:40:24;;;;;;;4.22;2.45;;;17.30;99.90;;;;;;2069364;28;20041;-69
2021/10/20 00:41:29;;;;;;;2.75;2.55;;;17.30;99.90;;;;;;2063670;28;20014;-69
2021/10/20 00:42:29;;;;;;;4.93;2.40;;;17.30;99.90;;;;;;2069614;28;20041;-69
2021/10/20 00:43:30;;;;;;;3.63;2.63;;;17.30;99.90;;;;;;2065290;28;20062;-69
2021/10/20 00:44:54;;;;;;;4.13;2.60;;;17.30;99.90;;;;;;2063492;28;20347;-69
2021/10/20 00:45:54;;;;;;;3.58;2.67;;;17.30;99.90;;;;;;2063556;28;20081;-69
2021/10/20 00:46:56;;;;;;;4.07;2.80;;;17.30;99.90;;;;;;2063364;28;20030;-69
2021/10/20 00:47:56;;;;;;;3.90;2.50;;;17.30;99.90;;;;;;2068392;28;20026;-69
2021/10/20 00:48:58;;;;;;;3.47;2.70;;;17.30;99.90;;;;;;2065217;28;20054;-69
2021/10/20 00:49:58;;;;;;;4.43;2.70;;;17.30;99.90;;;;;;2063459;28;20027;-69
2021/10/20 00:50:59;;;;;;;4.63;2.30;;;17.30;99.90;;;;;;2063174;28;20034;-69
2021/10/20 00:52:00;;;;;;;2.50;2.13;;;17.30;99.90;;;;;;2063720;28;20027;-69
2021/10/20 00:53:00;;;;;;;3.28;2.55;;;17.30;99.90;;;;;;2063695;28;20435;-69
2021/10/20 00:54:01;;;;;;;5.72;2.85;;;17.30;99.90;;;;;;2070648;28;20021;-69
2021/10/20 00:55:03;;;;;;;3.97;2.83;;;17.30;99.90;;;;;;2069094;28;20148;-69
2021/10/20 00:56:04;;;;;;;4.93;2.50;;;17.30;99.90;;;;;;2063602;28;20367;-69
2021/10/20 00:57:09;;;;;;;3.65;2.50;;;17.30;99.90;;;;;;2068271;28;20036;-69
2021/10/20 00:58:09;;;;;;;3.30;2.65;;;17.30;99.90;;;;;;2069942;28;20037;-69
2021/10/20 00:59:10;;;;;;;4.05;2.42;;;17.30;99.90;;;;;;2066991;28;20065;-69
2021/10/20 01:00:11;;;;;;;4.68;2.40;;;17.30;99.90;;;;;;2067096;28;20105;-69
2021/10/20 01:01:12;;;;;;;4.07;2.50;;;17.30;99.90;;;;;;2064385;28;20034;-69
2021/10/20 01:02:12;;;;;;;2.88;2.40;;;17.30;99.90;;;;;;2071799;28;20045;-69
2021/10/20 01:03:13;;;;;;;5.35;2.45;;;17.30;99.90;;;;;;2068249;28;20030;-69
2021/10/20 01:04:14;;;;;;;2.85;2.38;;;17.30;99.90;;;;;;2063488;28;20467;-69
2021/10/20 01:05:15;;;;;;;3.10;2.47;;;17.30;99.90;;;;;;2063457;28;20030;-69
2021/10/20 01:06:16;;;;;;;4.30;2.58;;;17.30;99.90;;;;;;2063381;28;20023;-69
2021/10/20 01:07:18;;;;;;;3.42;2.65;;;17.30;99.90;;;;;;2063456;28;20033;-69
2021/10/20 01:08:19;;;;;;;5.03;2.33;;;17.30;99.90;;;;;;2064172;28;20029;-69
2021/10/20 01:09:19;;;;;;;2.55;2.35;;;17.30;99.90;;;;;;2063238;28;20022;-69
2021/10/20 01:10:20;;;;;;;4.03;2.50;;;17.30;99.90;;;;;;2063591;28;20031;-69
2021/10/20 01:11:20;;;;;;;2.47;2.28;;;17.30;99.90;;;;;;2063194;28;20026;-69
2021/10/20 01:12:21;;;;;;;3.10;2.47;;;17.30;99.90;;;;;;2063298;28;20077;-69
2021/10/20 01:13:22;;;;;;;2.72;2.40;;;17.30;99.90;;;;;;2063599;28;20015;-69
2021/10/20 01:14:28;;;;;;;4.63;2.45;;;17.30;99.90;;;;;;2063210;28;20030;-69
2021/10/20 01:15:28;;;;;;;2.25;2.05;;;17.30;99.90;;;;;;2063654;28;20023;-68
2021/10/20 01:16:29;;;;;;;3.35;3.00;;;17.30;99.90;;;;;;2063349;28;20760;-69
2021/10/20 01:17:30;;;;;;;6.10;2.70;;;17.30;99.90;;;;;;2064960;28;20138;-69
2021/10/20 01:18:31;;;;;;;3.97;2.50;;;17.30;99.90;;;;;;2070983;28;20101;-69
2021/10/20 01:19:32;;;;;;;2.88;2.33;;;17.40;99.90;;;;;;2071203;28;20045;-69
2021/10/20 01:20:33;;;;;;;4.32;2.42;;;17.30;99.90;;;;;;2071456;28;20037;-69
2021/10/20 01:21:35;;;;;;;6.28;2.67;;;17.30;99.90;;;;;;2071319;28;20584;-69
2021/10/20 01:22:36;;;;;;;3.45;2.63;;;17.30;99.90;;;;;;2069122;28;20033;-69
2021/10/20 01:23:37;;;;;;;2.70;2.30;;;17.30;99.90;;;;;;2071689;28;20076;-69
2021/10/20 01:24:38;;;;;;;4.90;2.75;;;17.30;99.90;;;;;;2069673;28;20030;-69
2021/10/20 01:25:39;;;;;;;3.17;2.35;;;17.40;99.90;;;;;;2070997;28;20478;-69
2021/10/20 01:26:39;;;;;;;2.70;2.50;;;17.30;99.90;;;;;;2066685;28;20530;-69
2021/10/20 01:27:40;;;;;;;3.03;2.53;;;17.40;99.90;;;;;;2066895;28;20022;-69
2021/10/20 01:28:43;;;;;;;3.15;2.22;;;17.40;99.90;;;;;;2062580;28;20026;-68
2021/10/20 01:29:43;;;;;;;3.28;2.42;;;17.40;99.90;;;;;;2063110;28;20038;-69
2021/10/20 01:30:44;;;;;;;4.43;2.40;;;17.40;99.90;;;;;;2063426;28;20467;-69
2021/10/20 01:31:53;;;;;;;3.85;2.70;;;17.40;99.90;;;;;;2063445;28;20022;-69
2021/10/20 01:32:54;;;;;;;3.42;2.80;;;17.40;99.90;;;;;;2063265;28;20030;-69
2021/10/20 01:33:54;;;;;;;6.88;2.70;;;17.40;99.90;;;;;;2063507;28;20037;-69
2021/10/20 01:34:55;;;;;;;3.38;2.30;;;17.40;99.90;;;;;;2070519;28;20022;-69
2021/10/20 01:35:56;;;;;;;3.28;2.30;;;17.40;99.90;;;;;;2067088;28;20422;-69
2021/10/20 01:37:01;;;;;;;2.63;2.28;;;17.40;99.90;;;;;;2070886;28;20034;-69
2021/10/20 01:38:02;;;;;;;3.00;2.70;;;17.40;99.90;;;;;;2065719;28;20157;-69
2021/10/20 01:39:03;;;;;;;4.28;2.38;;;17.40;99.90;;;;;;2067641;28;20109;-69
2021/10/20 01:40:05;;;;;;;3.17;2.58;;;17.40;99.90;;;;;;2071460;28;20034;-68
2021/10/20 01:41:06;;;;;;;4.25;2.10;;;17.30;99.90;;;;;;2063856;28;20026;-69
2021/10/20 01:42:06;;;;;;;3.80;2.22;;;17.40;99.90;;;;;;2063578;28;20026;-69
2021/10/20 01:43:07;;;;;;;3.75;2.22;;;17.40;99.90;;;;;;2063100;28;20030;-69
2021/10/20 01:44:08;;;;;;;3.35;2.20;;;17.40;99.90;;;;;;2062995;28;20053;-69
2021/10/20 01:45:12;;;;;;;3.20;2.47;;;17.40;99.90;;;;;;2063214;28;20494;-69
2021/10/20 01:46:16;;;;;;;5.47;2.72;;;17.40;99.90;;;;;;2063282;28;20077;-69
2021/10/20 01:47:17;;;;;;;4.55;2.60;;;17.40;99.90;;;;;;2063226;28;20050;-69
2021/10/20 01:48:17;;;;;;;4.50;2.58;;;17.40;99.90;;;;;;2063063;28;20041;-69
2021/10/20 01:49:18;;;;;;;3.58;2.13;;;17.40;99.90;;;;;;2064931;28;20046;-69
2021/10/20 01:50:18;;;;;;;4.07;2.63;;;17.40;99.90;;;;;;2068592;28;20027;-69
2021/10/20 01:51:19;;;;;;;4.93;2.83;;;17.40;99.90;;;;;;2064854;28;20037;-69
2021/10/20 01:52:19;;;;;;;2.78;2.35;;;17.40;99.90;;;;;;2064939;28;20072;-69
2021/10/20 01:53:20;;;;;;;2.78;2.03;;;17.40;99.90;;;;;;2071386;28;20029;-69
2021/10/20 01:54:21;;;;;;;4.15;2.60;;;17.40;99.90;;;;;;2072443;28;20045;-69
2021/10/20 01:55:21;;;;;;;3.95;2.63;;;17.40;99.90;;;;;;2072245;28;20518;-69
2021/10/20 01:56:22;;;;;;;6.22;2.65;;;17.40;99.90;;;;;;2065015;28;20034;-69
2021/10/20 01:57:23;;;;;;;5.03;2.38;;;17.40;99.90;;;;;;2068128;28;20470;-69
2021/10/20 01:58:23;;;;;;;2.60;2.40;;;17.40;99.90;;;;;;2070098;28;20061;-69
2021/10/20 01:59:24;;;;;;;4.20;2.58;;;17.40;99.90;;;;;;2067151;28;20018;-69
2021/10/20 02:00:25;;;;;;;3.00;2.30;;;17.40;99.90;;;;;;2070475;28;20033;-69
2021/10/20 02:01:25;;;;;;;4.00;2.90;;;17.50;99.90;;;;;;2073101;28;20022;-69
2021/10/20 02:02:26;;;;;;;2.67;2.30;;;17.40;99.90;;;;;;2066322;28;20053;-68
2021/10/20 02:03:27;;;;;;;2.92;2.10;;;17.40;99.90;;;;;;2065876;28;20038;-69
2021/10/20 02:04:27;;;;;;;2.92;2.30;;;17.40;99.90;;;;;;2066151;28;20022;-69
2021/10/20 02:05:28;;;;;;;2.60;2.40;;;17.40;99.90;;;;;;2066139;28;20033;-69
2021/10/20 02:06:28;;;;;;;4.82;2.80;;;17.40;99.90;;;;;;2066783;28;20034;-69
2021/10/20 02:07:29;;;;;;;3.13;2.50;;;17.40;99.90;;;;;;2074237;28;20033;-69
2021/10/20 02:08:30;;;;;;;3.00;2.65;;;17.40;99.90;;;;;;2068185;28;20030;-69
2021/10/20 02:09:30;;;;;;;4.28;2.58;;;17.40;99.90;;;;;;2066142;28;20410;-69
2021/10/20 02:10:31;;;;;;;2.45;2.10;;;17.40;99.90;;;;;;2066284;28;20030;-68
2021/10/20 02:11:32;;;;;;;4.13;2.70;;;17.40;99.90;;;;;;2065929;28;20026;-69
2021/10/20 02:12:32;;;;;;;4.35;2.72;;;17.40;99.90;;;;;;2066393;28;20098;-69
2021/10/20 02:13:34;;;;;;;2.78;2.30;;;17.40;99.90;;;;;;2066027;28;20093;-69
2021/10/20 02:14:35;;;;;;;2.88;2.60;;;17.40;99.90;;;;;;2071622;28;20042;-68
2021/10/20 02:15:35;;;;;;;3.10;2.80;;;17.40;99.90;;;;;;2074262;28;20088;-69
2021/10/20 02:16:36;;;;;;;2.90;2.53;;;17.40;99.90;;;;;;2074370;28;20111;-69
2021/10/20 02:17:37;;;;;;;4.50;2.25;;;17.40;99.90;;;;;;2074112;28;20030;-69
2021/10/20 02:18:38;;;;;;;4.07;2.65;;;17.40;99.90;;;;;;2073661;28;20032;-69
2021/10/20 02:19:39;;;;;;;4.25;2.97;;;17.40;99.90;;;;;;2074106;28;20056;-69
2021/10/20 02:20:39;;;;;;;3.67;2.60;;;17.40;99.90;;;;;;2073378;28;20026;-68
2021/10/20 02:21:40;;;;;;;3.47;2.75;;;17.40;99.90;;;;;;2072950;28;20386;-69
2021/10/20 02:22:42;;;;;;;3.03;2.83;;;17.40;99.90;;;;;;2072060;28;20062;-69
2021/10/20 02:23:43;;;;;;;7.60;2.67;;;17.40;99.90;;;;;;2081912;28;20187;-69
2021/10/20 02:24:43;;;;;;;3.40;2.92;;;17.40;99.90;;;;;;2068799;28;20018;-69
2021/10/20 02:25:44;;;;;;;5.13;2.42;;;17.40;99.90;;;;;;2066295;28;20049;-69
2021/10/20 02:26:45;;;;;;;3.55;2.75;;;17.40;99.90;;;;;;2073004;28;20033;-68
2021/10/20 02:27:46;;;;;;;3.90;3.40;;;17.40;99.90;;;;;;2070775;28;20466;-68
2021/10/20 02:28:47;;;;;;;2.75;2.55;;;17.40;99.90;;;;;;2065502;28;20033;-69
2021/10/20 02:29:47;;;;;;;3.03;2.45;;;17.40;99.90;;;;;;2066034;28;20113;-69
2021/10/20 02:30:48;;;;;;;2.63;2.42;;;17.30;99.90;;;;;;2069576;28;20064;-69
2021/10/20 02:31:48;;;;;;;3.30;2.50;;;17.30;99.90;;;;;;2066290;28;20026;-69
2021/10/20 02:32:49;;;;;;;2.53;2.30;;;17.30;99.90;;;;;;2065909;28;20105;-68
2021/10/20 02:33:50;;;;;;;4.00;2.78;;;17.30;99.90;;;;;;2069652;28;20037;-69
2021/10/20 02:34:50;;;;;;;3.33;2.33;;;17.30;99.90;;;;;;2066248;28;20030;-69
2021/10/20 02:35:51;;;;;;;3.70;2.42;;;17.30;99.90;;;;;;2066493;28;20360;-69
2021/10/20 02:36:51;;;;;;;3.28;2.40;;;17.30;99.90;;;;;;2074049;28;20034;-69
2021/10/20 02:37:52;;;;;;;3.42;2.60;;;17.30;99.90;;;;;;2066867;28;20037;-69
2021/10/20 02:38:52;;;;;;;4.25;2.80;;;17.30;99.90;;;;;;2072229;28;20030;-69
2021/10/20 02:39:53;;;;;;;4.15;2.70;;;17.30;99.90;;;;;;2073514;28;20045;-69
2021/10/20 02:40:54;;;;;;;2.15;2.05;;;17.30;99.90;;;;;;2066995;28;20077;-69
2021/10/20 02:41:54;;;;;;;3.13;2.53;;;17.30;99.90;;;;;;2066134;28;20026;-69
2021/10/20 02:42:55;;;;;;;2.58;2.38;;;17.30;99.90;;;;;;2072134;28;20127;-69
2021/10/20 02:43:55;;;;;;;2.40;2.20;;;17.30;99.90;;;;;;2069542;28;20031;-69
2021/10/20 02:44:56;;;;;;;4.05;3.10;;;17.30;99.90;;;;;;2065847;28;20458;-69
2021/10/20 02:45:56;;;;;;;3.78;2.80;;;17.30;99.90;;;;;;2065991;28;20022;-68
2021/10/20 02:46:57;;;;;;;4.47;2.80;;;17.30;99.90;;;;;;2065828;28;20038;-69
2021/10/20 02:47:57;;;;;;;2.97;2.65;;;17.30;99.90;;;;;;2066020;28;20108;-69
2021/10/20 02:48:58;;;;;;;2.80;2.60;;;17.30;99.90;;;;;;2068060;28;20030;-69
2021/10/20 02:49:58;;;;;;;3.60;2.40;;;17.30;99.90;;;;;;2073309;28;20030;-69
2021/10/20 02:50:59;;;;;;;5.43;2.92;;;17.30;99.90;;;;;;2065651;28;20101;-69
2021/10/20 02:52:00;;;;;;;3.55;2.90;;;17.30;99.90;;;;;;2065794;28;20022;-69
2021/10/20 02:53:01;;;;;;;4.95;3.00;;;17.30;99.90;;;;;;2065695;28;20023;-69
2021/10/20 02:54:01;;;;;;;2.92;2.70;;;17.30;99.90;;;;;;2065955;28;20411;-69
2021/10/20 02:55:03;;;;;;;3.22;2.60;;;17.30;99.90;;;;;;2065953;28;20026;-69
2021/10/20 02:56:04;;;;;;;3.47;2.75;;;17.30;99.90;;;;;;2068475;28;20026;-69
2021/10/20 02:57:05;;;;;;;2.60;2.40;;;17.30;99.90;;;;;;2068902;28;20109;-68
2021/10/20 02:58:05;;;;;;;3.17;2.50;;;17.30;99.90;;;;;;2072793;28;20034;-68
2021/10/20 02:59:06;;;;;;;4.13;3.08;;;17.30;99.90;;;;;;2069156;28;20032;-69
2021/10/20 03:00:07;;;;;;;6.35;2.70;;;17.30;99.90;;;;;;2068778;28;20037;-68
2021/10/20 03:01:07;;;;;;;4.07;2.60;;;17.30;99.90;;;;;;2065922;28;20103;-68
2021/10/20 03:02:08;;;;;;;5.82;2.95;;;17.30;99.90;;;;;;2064722;28;20582;-69
2021/10/20 03:03:08;;;;;;;3.35;2.40;;;17.30;99.90;;;;;;2066490;28;20374;-68
2021/10/20 03:04:09;;;;;;;4.00;2.80;;;17.30;99.90;;;;;;2064778;28;20027;-68
2021/10/20 03:05:10;;;;;;;3.63;2.60;;;17.20;99.90;;;;;;2064907;28;20014;-69
2021/10/20 03:06:10;;;;;;;4.15;2.80;;;17.20;99.90;;;;;;2065086;28;20076;-69
2021/10/20 03:07:11;;;;;;;4.85;2.83;;;17.20;99.90;;;;;;2065007;28;20113;-69
2021/10/20 03:08:11;;;;;;;6.93;2.63;;;17.20;99.90;;;;;;2064199;28;20022;-69
2021/10/20 03:09:12;;;;;;;6.57;2.70;;;17.20;99.90;;;;;;2064870;28;20014;-69
2021/10/20 03:10:13;;;;;;;4.00;2.63;;;17.20;99.90;;;;;;2065041;28;20069;-69
2021/10/20 03:11:14;;;;;;;3.92;2.63;;;17.20;99.90;;;;;;2070480;28;20109;-68
2021/10/20 03:12:14;;;;;;;5.55;3.10;;;17.20;99.90;;;;;;2064333;28;20026;-68
2021/10/20 03:13:15;;;;;;;3.25;2.85;;;17.20;99.90;;;;;;2064600;28;20375;-68
2021/10/20 03:14:15;;;;;;;2.78;2.55;;;17.20;99.90;;;;;;2064371;28;20035;-68
2021/10/20 03:15:16;;;;;;;3.28;2.97;;;17.20;99.90;;;;;;2064535;28;20077;-68
2021/10/20 03:16:17;;;;;;;3.15;2.85;;;17.20;99.90;;;;;;2064498;28;20537;-69
2021/10/20 03:17:17;;;;;;;4.72;3.10;;;17.20;99.90;;;;;;2069354;28;20501;-68
2021/10/20 03:18:18;;;;;;;3.53;2.60;;;17.20;99.90;;;;;;2065642;28;20072;-68
2021/10/20 03:19:18;;;;;;;3.13;2.88;;;17.20;99.90;;;;;;2064445;28;20026;-69
2021/10/20 03:20:19;;;;;;;2.75;2.50;;;17.20;99.90;;;;;;2064094;28;20026;-68
2021/10/20 03:21:20;;;;;;;4.00;3.10;;;17.20;99.90;;;;;;2064446;28;20414;-69
2021/10/20 03:22:20;;;;;;;3.42;2.78;;;17.20;99.90;;;;;;2064315;28;20033;-69
2021/10/20 03:23:21;;;;;;;3.97;2.55;;;17.20;99.90;;;;;;2064505;28;20019;-68
2021/10/20 03:24:21;;;;;;;3.40;2.75;;;17.20;99.90;;;;;;2064302;28;20046;-68
2021/10/20 03:25:22;;;;;;;3.65;2.97;;;17.20;99.90;;;;;;2064547;28;20027;-68
2021/10/20 03:26:23;;;;;;;3.53;2.90;;;17.20;99.90;;;;;;2065989;28;20577;-69
2021/10/20 03:27:24;;;;;;;3.83;3.22;;;17.20;99.90;;;;;;2071766;28;20020;-69
2021/10/20 03:28:25;;;;;;;5.15;2.88;;;17.20;99.90;;;;;;2063732;28;20045;-69
2021/10/20 03:29:25;;;;;;;3.38;2.90;;;17.20;99.90;;;;;;2064357;28;20023;-69
2021/10/20 03:30:26;;;;;;;4.30;3.03;;;17.20;99.90;;;;;;2064419;28;20034;-69
2021/10/20 03:31:27;;;;;;;5.07;3.00;;;17.20;99.90;;;;;;2071716;28;20431;-68
2021/10/20 03:32:27;;;;;;;5.18;3.67;;;17.10;99.90;;;;;;2072484;28;20125;-68
2021/10/20 03:33:28;;;;;;;6.30;3.00;;;17.20;99.90;;;;;;2072337;28;20033;-69
2021/10/20 03:34:29;;;;;;;5.60;3.08;;;17.20;99.90;;;;;;2071607;28;20030;-69
2021/10/20 03:35:29;;;;;;;3.42;2.78;;;17.20;99.90;;;;;;2070541;28;20026;-69
2021/10/20 03:36:30;;;;;;;4.63;2.72;;;17.20;99.90;;;;;;2070034;28;20038;-69
2021/10/20 03:37:31;;;;;;;4.15;3.15;;;17.20;99.90;;;;;;2067471;28;20104;-69
2021/10/20 03:38:31;;;;;;;3.08;2.80;;;17.20;99.90;;;;;;2065856;28;20031;-68
2021/10/20 03:39:32;;;;;;;4.13;3.13;;;17.10;99.90;;;;;;2069912;28;20049;-68
2021/10/20 03:40:34;;;;;;;4.47;3.15;;;17.10;99.90;;;;;;2069635;28;20046;-68
2021/10/20 03:41:34;;;;;;;3.45;2.88;;;17.10;99.90;;;;;;2064267;28;20114;-69
2021/10/20 03:42:36;;;;;;;5.03;3.35;;;17.20;99.90;;;;;;2064182;28;20033;-68
2021/10/20 03:43:38;;;;;;;3.45;3.05;;;17.20;99.90;;;;;;2067343;28;20517;-68
2021/10/20 03:44:39;;;;;;;5.85;3.42;;;17.20;99.90;;;;;;2071006;28;20030;-69
2021/10/20 03:45:39;;;;;;;4.07;2.97;;;17.20;99.90;;;;;;2067365;28;20109;-69
2021/10/20 03:46:40;;;;;;;3.50;3.00;;;17.20;99.90;;;;;;2071392;28;20026;-69
2021/10/20 03:47:40;;;;;;;6.82;3.13;;;17.20;99.90;;;;;;2063906;28;20473;-69
2021/10/20 03:48:41;;;;;;;5.45;3.50;;;17.20;99.90;;;;;;2066896;28;20060;-69
2021/10/20 03:49:41;;;;;;;4.30;3.20;;;17.10;99.90;;;;;;2072286;28;20478;-68
2021/10/20 03:50:42;;;;;;;4.05;3.13;;;17.10;99.90;;;;;;2072447;28;20028;-68
2021/10/20 03:51:42;;;;;;;6.80;2.88;;;17.20;99.90;;;;;;2071742;28;20261;-68
2021/10/20 03:52:43;;;;;;;5.18;2.95;;;17.20;99.90;;;;;;2072103;28;20061;-68
2021/10/20 03:53:43;;;;;;;3.95;3.08;;;17.10;99.90;;;;;;2072297;28;20040;-69
2021/10/20 03:54:44;;;;;;;8.52;3.90;;;17.20;99.90;;;;;;2072468;28;20026;-69
2021/10/20 03:55:45;;;;;;;5.22;2.80;;;17.20;99.90;;;;;;2071902;28;20100;-68
2021/10/20 03:56:45;;;;;;;4.40;2.70;;;17.20;99.90;;;;;;2072222;28;20030;-69
2021/10/20 03:57:46;;;;;;;3.50;2.72;;;17.20;99.90;;;;;;2072021;28;20029;-68
2021/10/20 03:58:46;;;;;;;3.33;2.90;;;17.10;99.90;;;;;;2069960;28;20112;-69
2021/10/20 03:59:47;;;;;;;4.43;3.22;;;17.20;99.90;;;;;;2063831;28;20038;-69
2021/10/20 04:00:48;;;;;;;3.58;3.15;;;17.20;99.90;;;;;;2064407;28;20029;-69
2021/10/20 04:01:48;;;;;;;3.42;2.90;;;17.20;99.90;;;;;;2063468;28;20027;-69
2021/10/20 04:02:49;;;;;;;3.05;2.75;;;17.20;99.90;;;;;;2064129;28;20030;-68
2021/10/20 04:03:49;;;;;;;3.78;2.90;;;17.20;99.90;;;;;;2063682;28;20052;-69
2021/10/20 04:04:50;;;;;;;3.70;3.03;;;17.20;99.90;;;;;;2064229;28;20045;-69
2021/10/20 04:05:50;;;;;;;3.58;3.10;;;17.20;99.90;;;;;;2063946;28;20037;-69
2021/10/20 04:06:51;;;;;;;7.95;3.20;;;17.20;99.90;;;;;;2064364;28;20054;-69
2021/10/20 04:07:52;;;;;;;3.60;3.13;;;17.20;99.90;;;;;;2064367;28;20367;-68
2021/10/20 04:08:52;;;;;;;4.80;3.13;;;17.20;99.90;;;;;;2063551;28;20030;-68
2021/10/20 04:09:53;;;;;;;5.40;3.10;;;17.20;99.90;;;;;;2063855;28;20037;-68
2021/10/20 04:10:54;;;;;;;4.53;3.20;;;17.20;99.90;;;;;;2064043;28;20069;-68
2021/10/20 04:11:55;;;;;;;5.40;3.55;;;17.20;99.90;;;;;;2063897;28;20034;-69
2021/10/20 04:12:55;;;;;;;4.80;2.80;;;17.20;99.90;;;;;;2067977;28;20507;-69
2021/10/20 04:13:56;;;;;;;4.43;3.13;;;17.20;99.90;;;;;;2064191;28;20030;-69
2021/10/20 04:14:56;;;;;;;3.35;3.05;;;17.20;99.90;;;;;;2063786;28;20537;-69
2021/10/20 04:15:57;;;;;;;5.30;3.10;;;17.20;99.90;;;;;;2064021;28;20073;-69
2021/10/20 04:16:57;;;;;;;5.60;3.38;;;17.20;99.90;;;;;;2063952;28;20121;-69
2021/10/20 04:17:58;;;;;;;4.32;2.70;;;17.20;99.90;;;;;;2063887;28;20031;-69
2021/10/20 04:18:58;;;;;;;7.18;3.33;;;17.20;99.90;;;;;;2063383;28;20038;-69
2021/10/20 04:19:59;;;;;;;7.03;2.83;;;17.20;99.90;;;;;;2064094;28;20470;-69
2021/10/20 04:20:59;;;;;;;3.65;3.15;;;17.20;99.90;;;;;;2063663;28;20038;-69
2021/10/20 04:22:00;;;;;;;6.88;3.20;;;17.20;99.90;;;;;;2064116;28;20034;-69
2021/10/20 04:23:01;;;;;;;8.43;3.42;;;17.20;99.90;;;;;;2064114;28;20058;-69
2021/10/20 04:24:02;;;;;;;3.30;3.00;;;17.20;99.90;;;;;;2063805;28;20379;-69
2021/10/20 04:25:04;;;;;;;4.53;2.92;;;17.20;99.90;;;;;;2064008;28;20026;-69
2021/10/20 04:26:04;;;;;;;3.70;3.38;;;17.20;99.90;;;;;;2063549;28;20022;-69
2021/10/20 04:27:05;;;;;;;4.38;2.97;;;17.20;99.90;;;;;;2064035;28;20084;-69
2021/10/20 04:28:05;;;;;;;4.78;3.25;;;17.20;99.90;;;;;;2070111;28;20022;-69
2021/10/20 04:29:06;;;;;;;5.07;3.10;;;17.20;99.90;;;;;;2068943;28;20034;-69
2021/10/20 04:30:08;;;;;;;5.35;3.47;;;17.20;99.90;;;;;;2065996;28;20268;-68
2021/10/20 04:31:09;;;;;;;6.05;3.90;;;17.20;99.90;;;;;;2066244;28;20022;-69
2021/10/20 04:32:10;;;;;;;4.95;3.30;;;17.20;99.90;;;;;;2063966;28;20022;-69
2021/10/20 04:33:10;;;;;;;3.42;2.92;;;17.20;99.90;;;;;;2063870;28;20033;-68
2021/10/20 04:34:11;;;;;;;5.65;3.45;;;17.20;99.90;;;;;;2068649;28;20028;-69
2021/10/20 04:35:11;;;;;;;5.63;3.10;;;17.20;99.90;;;;;;2071791;28;20104;-69
2021/10/20 04:36:12;;;;;;;5.70;3.65;;;17.20;99.90;;;;;;2067857;28;20109;-69
2021/10/20 04:37:12;;;;;;;3.90;3.25;;;17.20;99.90;;;;;;2069221;28;20032;-69
2021/10/20 04:38:13;;;;;;;3.55;3.10;;;17.20;99.90;;;;;;2067091;28;20034;-69
2021/10/20 04:39:14;;;;;;;4.63;3.55;;;17.20;99.90;;;;;;2069621;28;20504;-69
2021/10/20 04:40:14;;;;;;;4.50;3.38;;;17.20;99.90;;;;;;2071134;28;20371;-69
2021/10/20 04:41:15;;;;;;;5.22;3.50;;;17.20;99.90;;;;;;2071769;28;20072;-69
2021/10/20 04:42:16;;;;;;;4.53;3.13;;;17.20;99.90;;;;;;2067706;28;20032;-69
2021/10/20 04:43:16;;;;;;;3.67;3.13;;;17.20;99.90;;;;;;2063522;28;20026;-69
2021/10/20 04:44:17;;;;;;;4.05;3.38;;;17.20;99.90;;;;;;2063737;28;20022;-69
2021/10/20 04:45:17;;;;;;;5.05;3.47;;;17.20;99.90;;;;;;2064016;28;20010;-69
2021/10/20 04:46:18;;;;;;;4.03;3.25;;;17.20;99.90;;;;;;2063663;28;20023;-69
2021/10/20 04:47:19;;;;;;;3.63;3.33;;;17.20;99.90;;;;;;2063640;28;20015;-69
2021/10/20 04:48:20;;;;;;;4.72;2.90;;;17.20;99.90;;;;;;2063036;28;20018;-69
2021/10/20 04:49:20;;;;;;;7.40;3.20;;;17.20;99.90;;;;;;2064259;28;20025;-69
2021/10/20 04:50:21;;;;;;;4.25;3.15;;;17.20;99.90;;;;;;2063296;28;20026;-69
2021/10/20 04:51:21;;;;;;;5.50;3.75;;;17.20;99.90;;;;;;2063708;28;20467;-69
2021/10/20 04:52:23;;;;;;;5.72;3.33;;;17.20;99.90;;;;;;2063419;28;20470;-69
2021/10/20 04:53:24;;;;;;;3.17;2.83;;;17.20;99.90;;;;;;2063646;28;20030;-68
2021/10/20 04:54:24;;;;;;;7.57;3.35;;;17.20;99.90;;;;;;2064649;28;20022;-69
2021/10/20 04:55:25;;;;;;;4.00;3.20;;;17.20;99.90;;;;;;2066260;28;20029;-69
2021/10/20 04:56:26;;;;;;;3.92;3.30;;;17.20;99.90;;;;;;2063628;28;20026;-69
2021/10/20 04:57:26;;;;;;;3.45;3.03;;;17.20;99.90;;;;;;2067555;28;20026;-69
2021/10/20 04:58:27;;;;;;;3.95;3.40;;;17.20;99.90;;;;;;2067639;28;20022;-69
2021/10/20 04:59:31;;;;;;;7.95;3.75;;;17.20;99.90;;;;;;2069972;28;20061;-69
2021/10/20 05:00:31;;;;;;;3.67;3.33;;;17.20;99.90;;;;;;2064280;28;20434;-69
2021/10/20 05:01:32;;;;;;;4.85;3.45;;;17.20;99.90;;;;;;2063584;28;20105;-69
2021/10/20 05:02:36;;;;;;;4.43;3.03;;;17.20;99.90;;;;;;2067886;28;20084;-68
2021/10/20 05:03:36;;;;;;;5.35;3.45;;;17.20;99.90;;;;;;2065720;28;20113;-69
2021/10/20 05:04:37;;;;;;;5.45;3.83;;;17.20;99.90;;;;;;2063426;28;20549;-69
2021/10/20 05:05:37;;;;;;;6.28;3.50;;;17.10;99.90;;;;;;2063812;28;20018;-68
2021/10/20 05:06:38;;;;;;;4.95;3.17;;;17.10;99.90;;;;;;2063314;28;20041;-69
2021/10/20 05:07:49;;;;;;;4.18;2.97;;;17.10;99.90;;;;;;2063727;28;20026;-69
2021/10/20 05:08:50;;;;;;;5.95;3.60;;;17.10;99.90;;;;;;2063343;28;20109;-69
2021/10/20 05:09:50;;;;;;;3.83;3.47;;;17.10;99.90;;;;;;2063707;28;20034;-69
2021/10/20 05:10:51;;;;;;;4.90;3.78;;;17.10;99.90;;;;;;2063303;28;20033;-69
2021/10/20 05:11:51;;;;;;;4.85;3.10;;;17.10;99.90;;;;;;2063490;28;20038;-69
2021/10/20 05:12:53;;;;;;;4.13;3.28;;;17.10;99.90;;;;;;2063452;28;20026;-69
2021/10/20 05:13:54;;;;;;;3.65;3.35;;;17.10;99.90;;;;;;2063514;28;20034;-69
2021/10/20 05:14:54;;;;;;;4.22;3.67;;;17.10;99.90;;;;;;2063400;28;20026;-69
2021/10/20 05:15:55;;;;;;;5.05;3.33;;;17.10;99.90;;;;;;2063765;28;20022;-69
2021/10/20 05:16:55;;;;;;;3.72;3.10;;;17.10;99.90;;;;;;2063432;28;20034;-69
2021/10/20 05:17:56;;;;;;;6.10;3.60;;;17.10;99.90;;;;;;2063494;28;20030;-69